BERICHT 22/12/2019: De oude website is tijdelijk weer online! In 2020 zal er een volledig nieuwe site uitgerold worden, die nu volop in ontwikkeling is! Ondertussen blijven onderstaande metingen wel actueel!

Weerstation Zoersel Live Webcam Weerstation Zoersel Live Webcam


sateliet wolkenradar  


Doneren

CBI


onweer radar meer informatie blitzortung!


regen radar  rain snow radar


Enkele sfeerfotootjes...  

We konden geen weer-waarchuwingen ophalen. Ga rechtstreeks naar de Meteoalarm site : www.meteoalarm.eu en controleer daar .

metar rapporten vliegvelden

   
EBAW - Antwerp
gewijzigd: 29-02-2024 07:20
grotendeels bewolkt  
grotendeels bewolkt  
   wind: zuiden 13 km/h
wind: zuiden 13 km/h
temperatuur: 8°C
voelt als: 6°C
dauwpunt: 6°C
vochtigheid: 87%
barometer: 1011 hPa
bewolking: grotendeels bewolkt
zicht: meer dan 10 km
bewolking: grotendeels bewolkt 1000 ft
EBAW 290620Z 18007KT 9999 BKN010 08/06 Q1011 TEMPO BKN008
EBLG - Li├Ęge
gewijzigd: 29-02-2024 07:20
gedeeltelijk bewolkt  
gedeeltelijk bewolkt  
   wind: zuiden 22,2 km/h<br />Gust to 22,2 km/h
wind: zuiden 22,2 km/h
Gust to 22,2 km/h
temperatuur: 5°C
voelt als: 1°C
dauwpunt: 3°C
vochtigheid: 87%
barometer: 1013 hPa
bewolking: gedeeltelijk bewolkt
zicht: meer dan 10 km
bewolking: gedeeltelijk bewolkt 3700 ft
EBLG 290620Z 18012G22KT 9999 SCT037 05/03 Q1013 TEMPO BKN013
EBCV - Mons/Bergen
gewijzigd: 29-02-2024 07:25
lichte (mot)regen, grotendeels bewolkt  
lichte (mot)regen, grotendeels bewolkt  
   wind: zuiden 22,2 km/h
wind: zuiden 22,2 km/h
temperatuur: 7°C
voelt als: 3°C
dauwpunt: 6°C
vochtigheid: 93%
barometer: 1012 hPa
bewolking: grotendeels bewolkt
zicht: 4 km
bewolking: gedeeltelijk bewolkt 900 ft,
grotendeels bewolkt 1100 ft
EBCV 290625Z AUTO 18012KT 4300 -DZ SCT009/// BKN011/// 07/06 Q1012 GRN
EHBK - Maastricht
gewijzigd: 29-02-2024 07:25
bewolking  
bewolking  
   wind: zuiden 27,8 km/h
wind: zuiden 27,8 km/h
temperatuur: 6°C
voelt als: 2°C
dauwpunt: 3°C
vochtigheid: 81%
barometer: 1013 hPa
bewolking: bewolking
zicht: meer dan 10 km
bewolking: grotendeels bewolkt 4300 ft,
bewolking 4800 ft
EHBK 290625Z AUTO 19015KT 9999 BKN043 OVC048 06/03 Q1013 NOSIG
ELLX - Luxemburg
gewijzigd: 29-02-2024 07:20
mist, bewolking  
mist, bewolking  
   wind: zuiden 11,1 km/h
wind: zuiden 11,1 km/h
temperatuur: 1°C
voelt als: -2°C
dauwpunt: 1°C
vochtigheid: 100%
barometer: 1016 hPa
bewolking: bewolking
zicht: 0 km
bewolking: bewolking 100 ft
ELLX 290620Z 17006KT 140V200 0100 R24/0275N FG VV001 01/01 Q1016 NOSIG
EBOS - Oostende
gewijzigd: 29-02-2024 07:20
  
  
   wind: zuiden 24,1 km/h
wind: zuiden 24,1 km/h
zicht: meer dan 10 km
EBOS 290620Z AUTO 18013KT 9999 R26///// // OVC005/// 09/08 Q1010

script ontwikkeld door  Saratoga-weather.org aangepast voor de template door  Weerstation Leuven